Goulburn, Australia
Current Conditions -  °F | °C
As of 9:00 AM on Monday 24 Nov 2014 (Local Time) from YSCB Reporting Station
Rain Showers Rain Showers  
Wind Chill: 75°   Ceiling: 12000
Heat Index: 75°   Visibility: 6mi
Dew Point: 57°   Wind: 6mph
Humidity: 53%   Direction: 220°SW
Pressure: 29.97"   Gusts: NA
Location:  34.76°S, 149.72°E
Report Text: YSCB 232200Z 22005KT 9999 VCSH FEW040 BKN120 24/14 Q1015
Loading
Personal Weather Stations






























Interactive Weather Map New forecast layout! Learn more

10-Day Weather Forecast

Advertisements
Track Severe Weather on mobile